createdAt,value
2018-11-21T00:00:22.408Z,21.39
2018-11-21T00:01:22.417Z,21.43
2018-11-21T00:02:22.420Z,21.42
2018-11-21T00:03:22.422Z,21.39
2018-11-21T00:04:22.425Z,21.46
2018-11-21T00:05:22.431Z,21.42
2018-11-21T00:06:22.445Z,21.37
2018-11-21T00:07:22.438Z,21.36
2018-11-21T00:08:22.455Z,21.39
2018-11-21T00:09:22.444Z,21.32
2018-11-21T00:10:22.453Z,21.27
2018-11-21T00:11:22.459Z,21.30
2018-11-21T00:12:22.465Z,21.33
2018-11-21T00:13:22.479Z,21.40
2018-11-21T00:14:22.468Z,21.32
2018-11-21T00:15:22.475Z,21.37
2018-11-21T00:16:22.487Z,21.32
2018-11-21T00:17:22.492Z,21.35
2018-11-21T00:18:22.493Z,21.35
2018-11-21T00:19:22.506Z,21.27
2018-11-21T00:20:22.500Z,21.32
2018-11-21T00:21:22.508Z,21.30
2018-11-21T00:22:22.514Z,21.30
2018-11-21T00:23:22.521Z,21.27
2018-11-21T00:24:22.531Z,21.27
2018-11-21T00:25:22.525Z,21.24
2018-11-21T00:26:22.524Z,21.24
2018-11-21T00:27:22.536Z,21.21
2018-11-21T00:28:22.542Z,21.25
2018-11-21T00:29:22.539Z,21.17
2018-11-21T00:30:22.544Z,21.21
2018-11-21T00:31:22.551Z,21.18
2018-11-21T00:32:22.556Z,21.20
2018-11-21T00:33:22.564Z,21.20
2018-11-21T00:34:22.569Z,21.21
2018-11-21T00:35:22.570Z,21.17
2018-11-21T00:36:22.577Z,21.21
2018-11-21T00:37:22.584Z,21.17
2018-11-21T00:38:22.591Z,21.21
2018-11-21T00:39:22.588Z,21.14
2018-11-21T00:40:22.590Z,21.14
2018-11-21T00:41:22.601Z,21.17
2018-11-21T00:42:22.598Z,21.12
2018-11-21T00:43:22.606Z,21.20
2018-11-21T00:44:22.607Z,21.17
2018-11-21T00:45:22.620Z,21.06
2018-11-21T00:46:22.615Z,21.09
2018-11-21T00:47:22.620Z,21.14
2018-11-21T00:48:22.631Z,21.07
2018-11-21T00:49:22.641Z,21.00
2018-11-21T00:50:22.632Z,21.12
2018-11-21T00:51:22.635Z,21.05
2018-11-21T00:52:22.650Z,20.99
2018-11-21T00:53:22.647Z,21.15
2018-11-21T00:54:22.653Z,21.03
2018-11-21T00:55:22.660Z,21.00
2018-11-21T00:56:22.668Z,21.03
2018-11-21T00:57:23.553Z,20.97
2018-11-21T00:58:22.671Z,21.03
2018-11-21T00:59:22.677Z,21.06
2018-11-21T01:00:22.677Z,21.02
2018-11-21T01:01:22.681Z,21.09
2018-11-21T01:02:22.685Z,21.02
2018-11-21T01:03:22.695Z,20.99
2018-11-21T01:04:22.701Z,20.99
2018-11-21T01:05:22.698Z,21.11
2018-11-21T01:06:22.709Z,21.00
2018-11-21T01:07:22.705Z,21.06
2018-11-21T01:08:22.712Z,21.03
2018-11-21T01:09:22.722Z,21.05
2018-11-21T01:10:22.721Z,20.99
2018-11-21T01:11:22.728Z,21.00
2018-11-21T01:12:22.727Z,21.02
2018-11-21T01:13:22.738Z,20.96
2018-11-21T01:14:22.736Z,20.96
2018-11-21T01:15:22.743Z,21.00
2018-11-21T01:16:22.752Z,20.97
2018-11-21T01:17:22.755Z,21.03
2018-11-21T01:18:22.752Z,21.00
2018-11-21T01:19:22.763Z,20.97
2018-11-21T01:20:22.759Z,20.93
2018-11-21T01:21:22.766Z,20.99
2018-11-21T01:22:22.774Z,20.96
2018-11-21T01:23:22.779Z,20.93
2018-11-21T01:24:22.791Z,20.93
2018-11-21T01:25:22.776Z,20.93
2018-11-21T01:26:22.786Z,20.88
2018-11-21T01:27:22.781Z,20.82
2018-11-21T01:28:22.798Z,20.82
2018-11-21T01:29:22.798Z,20.84
2018-11-21T01:30:22.808Z,20.88
2018-11-21T01:31:22.900Z,20.92
2018-11-21T01:32:22.820Z,20.88
2018-11-21T01:33:22.828Z,20.84
2018-11-21T01:34:22.823Z,20.85
2018-11-21T01:35:22.835Z,20.84
2018-11-21T01:36:22.835Z,20.88
2018-11-21T01:37:22.844Z,20.85
2018-11-21T01:38:22.842Z,20.84
2018-11-21T01:39:22.847Z,20.88
2018-11-21T01:40:22.855Z,20.85
2018-11-21T01:41:22.886Z,20.90
2018-11-21T01:42:22.860Z,20.87
2018-11-21T01:43:22.862Z,20.88
2018-11-21T01:44:22.870Z,20.82
2018-11-21T01:45:22.921Z,20.87
2018-11-21T01:46:22.872Z,20.85
2018-11-21T01:47:22.882Z,20.84
2018-11-21T01:48:22.895Z,20.77
2018-11-21T01:49:22.905Z,20.85
2018-11-21T01:50:22.890Z,20.84
2018-11-21T01:51:22.894Z,20.82
2018-11-21T01:52:22.902Z,20.82
2018-11-21T01:53:22.904Z,20.74
2018-11-21T01:54:22.919Z,20.72
2018-11-21T01:55:22.922Z,20.77
2018-11-21T01:56:22.932Z,20.72
2018-11-21T01:57:22.920Z,20.74
2018-11-21T01:58:22.941Z,20.75
2018-11-21T01:59:22.927Z,20.75
2018-11-21T02:00:22.936Z,20.77
2018-11-21T02:01:22.944Z,20.77
2018-11-21T02:02:22.944Z,20.74
2018-11-21T02:03:22.965Z,20.78
2018-11-21T02:04:22.946Z,20.80
2018-11-21T02:05:22.970Z,20.77
2018-11-21T02:06:22.958Z,20.74
2018-11-21T02:07:22.960Z,20.72
2018-11-21T02:08:22.967Z,20.70
2018-11-21T02:09:22.978Z,20.74
2018-11-21T02:10:22.970Z,20.70
2018-11-21T02:11:22.984Z,20.69
2018-11-21T02:12:22.992Z,20.74
2018-11-21T02:13:22.992Z,20.69
2018-11-21T02:14:23.004Z,20.75
2018-11-21T02:15:23.005Z,20.63
2018-11-21T02:16:23.001Z,20.69
2018-11-21T02:17:23.020Z,20.74
2018-11-21T02:18:23.004Z,20.70
2018-11-21T02:19:23.017Z,20.77
2018-11-21T02:20:23.021Z,20.74
2018-11-21T02:21:23.023Z,20.69
2018-11-21T02:22:23.027Z,20.72
2018-11-21T02:23:23.034Z,20.77
2018-11-21T02:24:23.033Z,20.74
2018-11-21T02:25:23.039Z,20.77
2018-11-21T02:26:23.041Z,20.74
2018-11-21T02:27:23.051Z,20.67
2018-11-21T02:28:23.049Z,20.72
2018-11-21T02:29:23.081Z,20.66
2018-11-21T02:30:23.064Z,20.67
2018-11-21T02:31:23.075Z,20.65
2018-11-21T02:32:23.067Z,20.66
2018-11-21T02:33:23.075Z,20.67
2018-11-21T02:34:23.076Z,20.65
2018-11-21T02:35:23.078Z,20.56
2018-11-21T02:36:23.080Z,20.66
2018-11-21T02:37:23.091Z,20.58
2018-11-21T02:38:23.091Z,20.51
2018-11-21T02:39:23.095Z,20.55
2018-11-21T02:40:23.099Z,20.59
2018-11-21T02:41:23.106Z,20.63
2018-11-21T02:42:23.112Z,20.62
2018-11-21T02:43:23.115Z,20.50
2018-11-21T02:44:23.124Z,20.55
2018-11-21T02:45:23.120Z,20.50
2018-11-21T02:46:23.128Z,20.55
2018-11-21T02:47:23.132Z,20.60
2018-11-21T02:48:23.145Z,20.59
2018-11-21T02:49:23.135Z,20.58
2018-11-21T02:50:23.156Z,20.66
2018-11-21T02:51:23.147Z,20.55
2018-11-21T02:52:23.153Z,20.60
2018-11-21T02:53:23.154Z,20.59
2018-11-21T02:54:23.155Z,20.55
2018-11-21T02:55:23.160Z,20.65
2018-11-21T02:56:23.167Z,20.56
2018-11-21T02:57:23.170Z,20.56
2018-11-21T02:58:23.172Z,20.62
2018-11-21T02:59:23.180Z,20.56
2018-11-21T03:00:23.184Z,20.60
2018-11-21T03:01:23.183Z,20.55
2018-11-21T03:02:23.213Z,20.56
2018-11-21T03:03:23.196Z,20.58
2018-11-21T03:04:23.197Z,20.62
2018-11-21T03:05:23.203Z,20.58
2018-11-21T03:06:23.206Z,20.52
2018-11-21T03:07:23.208Z,20.58
2018-11-21T03:08:23.210Z,20.59
2018-11-21T03:09:23.222Z,20.59
2018-11-21T03:10:23.221Z,20.58
2018-11-21T03:11:23.228Z,20.55
2018-11-21T03:12:23.233Z,20.56
2018-11-21T03:13:28.309Z,20.48
2018-11-21T03:14:23.243Z,20.52
2018-11-21T03:15:23.240Z,20.51
2018-11-21T03:16:23.246Z,20.52
2018-11-21T03:17:23.250Z,20.52
2018-11-21T03:18:23.255Z,20.51
2018-11-21T03:19:23.257Z,20.56
2018-11-21T03:20:23.264Z,20.48
2018-11-21T03:21:23.265Z,20.48
2018-11-21T03:22:23.268Z,20.50
2018-11-21T03:23:23.275Z,20.47
2018-11-21T03:24:23.278Z,20.44
2018-11-21T03:25:23.281Z,20.44
2018-11-21T03:26:23.288Z,20.48
2018-11-21T03:27:23.288Z,20.52
2018-11-21T03:28:23.299Z,20.51
2018-11-21T03:29:23.303Z,20.44
2018-11-21T03:30:23.303Z,20.51
2018-11-21T03:31:23.314Z,20.52
2018-11-21T03:32:23.309Z,20.44
2018-11-21T03:33:23.313Z,20.48
2018-11-21T03:34:23.359Z,20.47
2018-11-21T03:35:23.329Z,20.44
2018-11-21T03:36:23.327Z,20.39
2018-11-21T03:37:23.334Z,20.41
2018-11-21T03:38:23.331Z,20.40
2018-11-21T03:39:23.338Z,20.39
2018-11-21T03:40:23.341Z,20.39
2018-11-21T03:41:23.348Z,20.40
2018-11-21T03:42:23.350Z,20.37
2018-11-21T03:43:23.353Z,20.37
2018-11-21T03:44:23.365Z,20.34
2018-11-21T03:45:23.355Z,20.40
2018-11-21T03:46:23.369Z,20.41
2018-11-21T03:47:23.370Z,20.40
2018-11-21T03:48:23.376Z,20.37
2018-11-21T03:49:23.377Z,20.36
2018-11-21T03:50:23.385Z,20.34
2018-11-21T03:51:23.385Z,20.36
2018-11-21T03:52:23.385Z,20.34
2018-11-21T03:53:23.394Z,20.36
2018-11-21T03:54:23.401Z,20.31
2018-11-21T03:55:23.398Z,20.36
2018-11-21T03:56:23.409Z,20.39
2018-11-21T03:57:23.412Z,20.40
2018-11-21T03:58:23.459Z,20.34
2018-11-21T03:59:23.414Z,20.36
2018-11-21T04:00:23.421Z,20.31
2018-11-21T04:01:23.435Z,20.37
2018-11-21T04:02:23.426Z,20.36
2018-11-21T04:03:23.434Z,20.39
2018-11-21T04:04:23.434Z,20.31
2018-11-21T04:05:23.440Z,20.40
2018-11-21T04:06:23.521Z,20.28
2018-11-21T04:07:23.452Z,20.37
2018-11-21T04:08:23.451Z,20.28
2018-11-21T04:09:23.460Z,20.34
2018-11-21T04:10:23.463Z,20.29
2018-11-21T04:11:23.468Z,20.29
2018-11-21T04:12:23.468Z,20.32
2018-11-21T04:13:23.473Z,20.31
2018-11-21T04:14:23.477Z,20.28
2018-11-21T04:15:23.481Z,20.31
2018-11-21T04:16:23.490Z,20.28
2018-11-21T04:17:23.495Z,20.25
2018-11-21T04:18:23.490Z,20.31
2018-11-21T04:19:23.497Z,20.32
2018-11-21T04:20:23.508Z,20.28
2018-11-21T04:21:23.502Z,20.29
2018-11-21T04:22:23.514Z,20.26
2018-11-21T04:23:23.512Z,20.28
2018-11-21T04:24:23.523Z,20.28
2018-11-21T04:25:23.517Z,20.31
2018-11-21T04:26:23.527Z,20.26
2018-11-21T04:27:23.532Z,20.28
2018-11-21T04:28:23.537Z,20.28
2018-11-21T04:29:23.536Z,20.36
2018-11-21T04:30:23.542Z,20.32
2018-11-21T04:31:23.543Z,20.24
2018-11-21T04:32:23.549Z,20.31
2018-11-21T04:33:23.553Z,20.26
2018-11-21T04:34:23.569Z,20.24
2018-11-21T04:35:23.563Z,20.34
2018-11-21T04:36:23.564Z,20.18
2018-11-21T04:37:23.564Z,20.22
2018-11-21T04:38:23.573Z,20.19
2018-11-21T04:39:23.574Z,20.32
2018-11-21T04:40:23.574Z,20.26
2018-11-21T04:41:23.589Z,20.26
2018-11-21T04:42:23.584Z,20.21
2018-11-21T04:43:23.592Z,20.22
2018-11-21T04:44:23.594Z,20.19
2018-11-21T04:45:23.607Z,20.24
2018-11-21T04:46:23.605Z,20.24
2018-11-21T04:47:23.611Z,20.24
2018-11-21T04:48:23.608Z,20.19
2018-11-21T04:49:23.614Z,20.24
2018-11-21T04:50:23.620Z,20.16
2018-11-21T04:51:23.623Z,20.14
2018-11-21T04:52:23.624Z,20.19
2018-11-21T04:53:23.632Z,20.19
2018-11-21T04:54:23.629Z,20.18
2018-11-21T04:55:23.639Z,20.19
2018-11-21T04:56:23.649Z,20.25
2018-11-21T04:57:23.641Z,20.25
2018-11-21T04:58:23.649Z,20.28
2018-11-21T04:59:23.651Z,20.18
2018-11-21T05:00:23.659Z,20.21
2018-11-21T05:01:23.661Z,20.14
2018-11-21T05:02:23.665Z,20.22
2018-11-21T05:03:23.668Z,20.26
2018-11-21T05:04:23.670Z,20.21
2018-11-21T05:05:23.677Z,20.25
2018-11-21T05:06:23.679Z,20.25
2018-11-21T05:07:23.680Z,20.21
2018-11-21T05:08:23.691Z,20.13
2018-11-21T05:09:23.700Z,20.25
2018-11-21T05:10:23.695Z,20.19
2018-11-21T05:11:23.702Z,20.24
2018-11-21T05:12:23.709Z,20.13
2018-11-21T05:13:23.713Z,20.19
2018-11-21T05:14:23.708Z,20.21
2018-11-21T05:15:23.714Z,20.21
2018-11-21T05:16:23.726Z,20.13
2018-11-21T05:17:23.725Z,20.14
2018-11-21T05:18:23.731Z,20.21
2018-11-21T05:19:23.731Z,20.11
2018-11-21T05:20:23.735Z,20.11
2018-11-21T05:21:23.736Z,20.21
2018-11-21T05:22:23.741Z,20.10
2018-11-21T05:23:23.743Z,20.19
2018-11-21T05:24:23.749Z,20.11
2018-11-21T05:25:23.752Z,20.19
2018-11-21T05:26:23.755Z,20.09
2018-11-21T05:27:23.766Z,20.09
2018-11-21T05:28:23.767Z,20.14
2018-11-21T05:29:23.769Z,20.10
2018-11-21T05:30:23.777Z,20.04
2018-11-21T05:31:23.776Z,20.10
2018-11-21T05:32:23.785Z,20.07
2018-11-21T05:33:23.791Z,20.07
2018-11-21T05:34:23.785Z,20.11
2018-11-21T05:35:23.790Z,20.06
2018-11-21T05:36:23.797Z,20.07
2018-11-21T05:37:23.799Z,20.06
2018-11-21T05:38:23.804Z,20.11
2018-11-21T05:39:23.808Z,20.13
2018-11-21T05:40:23.814Z,20.03
2018-11-21T05:41:23.815Z,20.03
2018-11-21T05:42:23.817Z,20.03
2018-11-21T05:43:23.823Z,20.09
2018-11-21T05:44:26.996Z,20.07
2018-11-21T05:45:23.836Z,20.07
2018-11-21T05:46:23.837Z,20.11
2018-11-21T05:47:23.844Z,20.06
2018-11-21T05:48:23.844Z,20.11
2018-11-21T05:49:23.854Z,20.09
2018-11-21T05:50:23.848Z,20.06
2018-11-21T05:51:23.856Z,20.10
2018-11-21T05:52:23.856Z,20.13
2018-11-21T05:53:23.862Z,20.07
2018-11-21T05:54:23.865Z,20.07
2018-11-21T05:55:23.867Z,20.09
2018-11-21T05:56:23.874Z,20.07
2018-11-21T05:57:23.881Z,20.09
2018-11-21T05:58:23.882Z,20.04
2018-11-21T05:59:23.873Z,20.11
2018-11-21T06:00:23.891Z,20.09
2018-11-21T06:01:23.906Z,20.04
2018-11-21T06:02:23.897Z,20.09
2018-11-21T06:03:23.901Z,20.09
2018-11-21T06:04:23.901Z,20.03
2018-11-21T06:05:23.905Z,20.07
2018-11-21T06:06:23.911Z,20.06
2018-11-21T06:07:23.911Z,20.04
2018-11-21T06:08:23.921Z,20.10
2018-11-21T06:09:23.923Z,20.10
2018-11-21T06:10:23.930Z,20.07
2018-11-21T06:11:23.933Z,20.06
2018-11-21T06:12:23.947Z,20.04
2018-11-21T06:13:23.940Z,20.04
2018-11-21T06:14:23.944Z,20.04
2018-11-21T06:15:23.941Z,20.09
2018-11-21T06:16:23.954Z,20.10
2018-11-21T06:17:23.951Z,20.04
2018-11-21T06:18:23.965Z,20.04
2018-11-21T06:19:23.953Z,20.07
2018-11-21T06:20:23.966Z,20.00
2018-11-21T06:21:23.975Z,19.99
2018-11-21T06:22:24.018Z,20.06
2018-11-21T06:23:23.975Z,20.09
2018-11-21T06:24:23.979Z,20.09
2018-11-21T06:25:23.985Z,20.04
2018-11-21T06:26:23.988Z,20.09
2018-11-21T06:27:23.991Z,20.07
2018-11-21T06:28:23.993Z,20.07
2018-11-21T06:29:23.999Z,20.09
2018-11-21T06:30:24.001Z,20.06
2018-11-21T06:31:24.009Z,20.00
2018-11-21T06:32:24.012Z,20.00
2018-11-21T06:33:24.014Z,20.04
2018-11-21T06:34:24.023Z,20.04
2018-11-21T06:35:24.682Z,20.03
2018-11-21T06:36:24.025Z,20.03
2018-11-21T06:37:24.025Z,20.02
2018-11-21T06:38:24.042Z,20.06
2018-11-21T06:39:24.033Z,19.96
2018-11-21T06:40:24.043Z,20.03
2018-11-21T06:41:24.043Z,19.99
2018-11-21T06:42:24.043Z,20.04
2018-11-21T06:43:24.051Z,20.03
2018-11-21T06:44:24.062Z,19.95
2018-11-21T06:45:24.057Z,19.89
2018-11-21T06:46:24.061Z,19.94
2018-11-21T06:47:24.072Z,19.95
2018-11-21T06:48:24.070Z,20.06
2018-11-21T06:49:24.072Z,19.88
2018-11-21T06:50:24.077Z,19.84
2018-11-21T06:51:24.080Z,19.95
2018-11-21T06:52:24.091Z,20.07
2018-11-21T06:53:24.088Z,19.89
2018-11-21T06:54:24.094Z,19.89
2018-11-21T06:55:24.097Z,20.06
2018-11-21T06:56:24.102Z,20.02
2018-11-21T06:57:24.106Z,20.00
2018-11-21T06:58:24.111Z,20.07
2018-11-21T06:59:24.114Z,19.99
2018-11-21T07:00:24.114Z,19.88
2018-11-21T07:01:24.120Z,20.00
2018-11-21T07:02:24.129Z,20.06
2018-11-21T07:03:24.128Z,19.91
2018-11-21T07:04:24.127Z,20.06
2018-11-21T07:05:24.200Z,20.06
2018-11-21T07:06:24.138Z,19.94
2018-11-21T07:07:24.142Z,20.03
2018-11-21T07:08:24.144Z,19.92
2018-11-21T07:09:24.148Z,20.07
2018-11-21T07:10:24.152Z,19.99
2018-11-21T07:11:24.158Z,20.03
2018-11-21T07:12:24.163Z,20.06
2018-11-21T07:13:24.168Z,20.10
2018-11-21T07:14:24.170Z,20.10
2018-11-21T07:15:24.171Z,20.06
2018-11-21T07:16:24.171Z,20.07
2018-11-21T07:17:24.174Z,20.09
2018-11-21T07:18:24.184Z,20.04
2018-11-21T07:19:24.184Z,20.06
2018-11-21T07:20:24.202Z,20.06
2018-11-21T07:21:24.195Z,20.06
2018-11-21T07:22:24.203Z,20.04
2018-11-21T07:23:24.200Z,20.04
2018-11-21T07:24:26.460Z,20.06
2018-11-21T07:25:24.214Z,20.06
2018-11-21T07:26:24.245Z,19.99
2018-11-21T07:27:24.220Z,19.88
2018-11-21T07:28:24.218Z,20.03
2018-11-21T07:29:24.226Z,19.89
2018-11-21T07:30:24.226Z,20.02
2018-11-21T07:31:24.234Z,20.02
2018-11-21T07:32:24.235Z,20.02
2018-11-21T07:33:24.241Z,20.06
2018-11-21T07:34:24.238Z,20.03
2018-11-21T07:35:24.250Z,19.92
2018-11-21T07:36:24.248Z,20.04
2018-11-21T07:37:24.250Z,19.99
2018-11-21T07:38:24.252Z,20.02
2018-11-21T07:39:24.259Z,19.94
2018-11-21T07:40:24.267Z,19.99
2018-11-21T07:41:24.268Z,19.94
2018-11-21T07:42:24.270Z,19.96
2018-11-21T07:43:24.280Z,19.94
2018-11-21T07:44:24.283Z,19.88
2018-11-21T07:45:24.291Z,19.86
2018-11-21T07:46:24.282Z,19.89
2018-11-21T07:47:26.646Z,19.86
2018-11-21T07:48:24.292Z,19.79
2018-11-21T07:49:24.299Z,19.73
2018-11-21T07:50:24.297Z,19.66
2018-11-21T07:51:24.303Z,19.76
2018-11-21T07:52:24.303Z,19.66
2018-11-21T07:53:24.307Z,19.62
2018-11-21T07:54:24.317Z,19.70
2018-11-21T07:55:24.324Z,19.62
2018-11-21T07:56:24.321Z,19.52
2018-11-21T07:57:24.327Z,19.55
2018-11-21T07:58:24.330Z,19.55
2018-11-21T07:59:24.331Z,19.52
2018-11-21T08:00:24.335Z,19.52
2018-11-21T08:01:24.338Z,19.47
2018-11-21T08:02:24.341Z,19.49
2018-11-21T08:03:24.347Z,19.55
2018-11-21T08:04:24.348Z,19.51
2018-11-21T08:05:24.349Z,19.54
2018-11-21T08:06:24.362Z,19.44
2018-11-21T08:07:24.364Z,19.48
2018-11-21T08:08:24.358Z,19.45
2018-11-21T08:09:24.374Z,19.47
2018-11-21T08:10:24.372Z,19.48
2018-11-21T08:11:24.376Z,19.41
2018-11-21T08:12:24.380Z,19.37
2018-11-21T08:13:24.389Z,19.41
2018-11-21T08:14:24.384Z,19.34
2018-11-21T08:15:24.387Z,19.41
2018-11-21T08:16:24.389Z,19.40
2018-11-21T08:17:24.400Z,19.40
2018-11-21T08:18:24.397Z,19.40
2018-11-21T08:19:24.395Z,19.39
2018-11-21T08:20:24.403Z,19.41
2018-11-21T08:21:24.413Z,19.40
2018-11-21T08:22:24.412Z,19.37
2018-11-21T08:23:24.412Z,19.39
2018-11-21T08:24:24.417Z,19.47
2018-11-21T08:25:24.421Z,19.39
2018-11-21T08:26:24.421Z,19.39
2018-11-21T08:27:24.429Z,19.36
2018-11-21T08:28:24.428Z,19.29
2018-11-21T08:29:24.433Z,19.39
2018-11-21T08:30:24.445Z,19.37
2018-11-21T08:31:24.436Z,19.44
2018-11-21T08:32:24.441Z,19.39
2018-11-21T08:33:24.449Z,19.44
2018-11-21T08:34:24.452Z,19.37
2018-11-21T08:35:24.444Z,19.39
2018-11-21T08:36:24.451Z,19.39
2018-11-21T08:37:24.452Z,19.37
2018-11-21T08:38:24.461Z,19.39
2018-11-21T08:39:24.461Z,19.40
2018-11-21T08:40:24.467Z,19.40
2018-11-21T08:41:24.477Z,19.44
2018-11-21T08:42:24.468Z,19.44
2018-11-21T08:43:24.476Z,19.40
2018-11-21T08:44:24.483Z,19.41
2018-11-21T08:45:24.483Z,19.44
2018-11-21T08:46:24.485Z,19.41
2018-11-21T08:47:24.485Z,19.34
2018-11-21T08:48:24.490Z,19.45
2018-11-21T08:49:24.497Z,19.39
2018-11-21T08:50:24.503Z,19.41
2018-11-21T08:51:24.498Z,19.40
2018-11-21T08:52:24.507Z,19.40
2018-11-21T08:53:24.514Z,19.51
2018-11-21T08:54:24.509Z,19.41
2018-11-21T08:55:24.513Z,19.39
2018-11-21T08:56:24.515Z,19.45
2018-11-21T08:57:24.527Z,19.45
2018-11-21T08:58:24.523Z,19.44
2018-11-21T08:59:24.526Z,19.44
2018-11-21T09:00:24.524Z,19.40
2018-11-21T09:01:24.527Z,19.47
2018-11-21T09:02:24.575Z,19.44
2018-11-21T09:03:24.535Z,19.44
2018-11-21T09:04:24.539Z,19.45
2018-11-21T09:05:24.542Z,19.41
2018-11-21T09:06:24.547Z,19.45
2018-11-21T09:07:24.549Z,19.44
2018-11-21T09:08:24.551Z,19.44
2018-11-21T09:09:24.557Z,19.37
2018-11-21T09:10:24.557Z,19.48
2018-11-21T09:11:24.563Z,19.41
2018-11-21T09:12:24.565Z,19.47
2018-11-21T09:13:24.571Z,19.52
2018-11-21T09:14:24.571Z,19.49
2018-11-21T09:15:24.573Z,19.52
2018-11-21T09:16:24.574Z,19.47
2018-11-21T09:17:24.577Z,19.49
2018-11-21T09:18:24.572Z,19.52
2018-11-21T09:19:24.586Z,19.47
2018-11-21T09:20:24.579Z,19.48
2018-11-21T09:21:24.591Z,19.49
2018-11-21T09:22:24.590Z,19.49
2018-11-21T09:23:24.597Z,19.62
2018-11-21T09:24:24.589Z,19.47
2018-11-21T09:25:24.618Z,19.49
2018-11-21T09:26:24.687Z,19.47
2018-11-21T09:27:24.613Z,19.62
2018-11-21T09:28:24.780Z,19.49
2018-11-21T09:29:25.067Z,19.56
2018-11-21T09:30:24.620Z,19.58
2018-11-21T09:31:24.619Z,19.55
2018-11-21T09:32:24.629Z,19.54
2018-11-21T09:33:24.626Z,19.54
2018-11-21T09:34:24.761Z,19.55
2018-11-21T09:35:24.633Z,19.47
2018-11-21T09:36:24.680Z,19.58
2018-11-21T09:37:24.640Z,19.58
2018-11-21T09:38:24.645Z,19.47
2018-11-21T09:39:24.650Z,19.56
2018-11-21T09:40:24.726Z,19.55
2018-11-21T09:41:24.650Z,19.59
2018-11-21T09:42:24.672Z,19.58
2018-11-21T09:43:24.654Z,19.55
2018-11-21T09:44:25.463Z,19.59
2018-11-21T09:45:24.668Z,19.64
2018-11-21T09:46:24.673Z,19.55
2018-11-21T09:47:24.669Z,19.52
2018-11-21T09:48:24.670Z,19.59
2018-11-21T09:49:24.671Z,19.62
2018-11-21T09:50:24.684Z,19.59
2018-11-21T09:51:24.685Z,19.58
2018-11-21T09:52:24.692Z,19.59
2018-11-21T09:53:24.693Z,19.55
2018-11-21T09:54:24.709Z,19.58
2018-11-21T09:55:24.691Z,19.64
2018-11-21T09:56:24.705Z,19.58
2018-11-21T09:57:24.699Z,19.64
2018-11-21T09:58:24.704Z,19.55
2018-11-21T09:59:24.705Z,19.64
2018-11-21T10:00:24.705Z,19.63
2018-11-21T10:01:24.711Z,19.56
2018-11-21T10:02:24.741Z,19.64
2018-11-21T10:03:24.715Z,19.58
2018-11-21T10:04:24.797Z,19.62
2018-11-21T10:05:24.723Z,19.63
2018-11-21T10:06:24.733Z,19.63
2018-11-21T10:07:24.731Z,19.59
2018-11-21T10:08:24.733Z,19.62
2018-11-21T10:09:24.751Z,19.62
2018-11-21T10:10:25.471Z,19.66
2018-11-21T10:11:24.738Z,19.69
2018-11-21T10:12:24.756Z,19.63
2018-11-21T10:13:24.746Z,19.69
2018-11-21T10:14:24.760Z,19.73
2018-11-21T10:15:24.760Z,19.70
2018-11-21T10:16:24.756Z,19.71
2018-11-21T10:17:24.773Z,19.70
2018-11-21T10:18:24.753Z,19.76
2018-11-21T10:19:24.768Z,19.73
2018-11-21T10:20:24.775Z,19.73
2018-11-21T10:21:24.774Z,19.73
2018-11-21T10:22:24.797Z,19.77
2018-11-21T10:23:24.770Z,19.74
2018-11-21T10:24:25.477Z,19.74
2018-11-21T10:25:24.791Z,19.84
2018-11-21T10:26:24.800Z,19.74
2018-11-21T10:27:24.790Z,19.76
2018-11-21T10:28:24.800Z,19.76
2018-11-21T10:29:24.802Z,19.79
2018-11-21T10:30:24.803Z,19.88
2018-11-21T10:31:24.805Z,19.79
2018-11-21T10:32:24.811Z,19.79
2018-11-21T10:33:24.809Z,19.79
2018-11-21T10:34:24.817Z,19.86
2018-11-21T10:35:24.828Z,19.88
2018-11-21T10:36:24.827Z,19.85
2018-11-21T10:37:24.825Z,19.86
2018-11-21T10:38:24.829Z,19.81
2018-11-21T10:39:24.838Z,19.82
2018-11-21T10:40:24.834Z,19.82
2018-11-21T10:41:24.836Z,19.84
2018-11-21T10:42:24.842Z,19.84
2018-11-21T10:43:28.391Z,19.81
2018-11-21T10:44:24.849Z,19.88
2018-11-21T10:45:24.849Z,19.85
2018-11-21T10:46:24.857Z,19.89
2018-11-21T10:47:24.858Z,19.81
2018-11-21T10:48:24.860Z,19.86
2018-11-21T10:49:24.865Z,19.82
2018-11-21T10:50:24.864Z,19.91
2018-11-21T10:51:24.872Z,19.86
2018-11-21T10:52:25.270Z,19.81
2018-11-21T10:53:24.888Z,19.76
2018-11-21T10:54:24.883Z,19.79
2018-11-21T10:55:24.886Z,19.79
2018-11-21T10:56:24.892Z,19.77
2018-11-21T10:57:24.894Z,19.77
2018-11-21T10:58:24.894Z,19.76
2018-11-21T10:59:24.898Z,19.76
2018-11-21T11:00:24.902Z,19.74
2018-11-21T11:01:24.911Z,19.71
2018-11-21T11:02:24.920Z,19.79
2018-11-21T11:03:24.925Z,19.70
2018-11-21T11:04:24.912Z,19.69
2018-11-21T11:05:24.928Z,19.71
2018-11-21T11:06:24.922Z,19.74
2018-11-21T11:07:24.929Z,19.76
2018-11-21T11:08:24.931Z,19.76
2018-11-21T11:09:24.934Z,19.73
2018-11-21T11:10:24.938Z,19.70
2018-11-21T11:11:24.943Z,19.74
2018-11-21T11:12:24.947Z,19.66
2018-11-21T11:13:24.948Z,19.71
2018-11-21T11:14:24.950Z,19.77
2018-11-21T11:15:24.953Z,19.69
2018-11-21T11:16:24.957Z,19.74
2018-11-21T11:17:24.957Z,19.76
2018-11-21T11:18:24.969Z,19.70
2018-11-21T11:19:24.968Z,19.74
2018-11-21T11:20:24.976Z,19.74
2018-11-21T11:21:24.982Z,19.73
2018-11-21T11:22:24.982Z,19.73
2018-11-21T11:23:24.982Z,19.70
2018-11-21T11:24:24.982Z,19.76
2018-11-21T11:25:24.988Z,19.70
2018-11-21T11:26:24.994Z,19.73
2018-11-21T11:27:24.994Z,19.76
2018-11-21T11:28:25.000Z,19.70
2018-11-21T11:29:25.002Z,19.71
2018-11-21T11:30:25.010Z,19.70
2018-11-21T11:31:25.011Z,19.71
2018-11-21T11:32:25.012Z,19.73
2018-11-21T11:33:25.024Z,19.70
2018-11-21T11:34:25.029Z,19.69
2018-11-21T11:35:25.025Z,19.73
2018-11-21T11:36:25.028Z,19.69
2018-11-21T11:37:25.030Z,19.76
2018-11-21T11:38:25.036Z,19.73
2018-11-21T11:39:25.037Z,19.70
2018-11-21T11:40:25.040Z,19.70
2018-11-21T11:41:25.044Z,19.66
2018-11-21T11:42:25.049Z,19.66
2018-11-21T11:43:25.049Z,19.66
2018-11-21T11:44:25.060Z,19.66
2018-11-21T11:45:25.054Z,19.64
2018-11-21T11:46:25.060Z,19.67
2018-11-21T11:47:25.061Z,19.69
2018-11-21T11:48:25.065Z,19.70
2018-11-21T11:49:25.081Z,19.64
2018-11-21T11:50:25.080Z,19.64
2018-11-21T11:51:25.075Z,19.64
2018-11-21T11:52:25.080Z,19.70
2018-11-21T11:53:25.082Z,19.66
2018-11-21T11:54:25.083Z,19.62
2018-11-21T11:55:25.092Z,19.63
2018-11-21T11:56:25.109Z,19.66
2018-11-21T11:57:25.096Z,19.64
2018-11-21T11:58:25.097Z,19.66
2018-11-21T11:59:25.107Z,19.64
2018-11-21T12:00:25.106Z,19.66
2018-11-21T12:01:25.108Z,19.59
2018-11-21T12:02:25.113Z,19.63
2018-11-21T12:03:25.113Z,19.62
2018-11-21T12:04:25.129Z,19.64
2018-11-21T12:05:25.128Z,19.56
2018-11-21T12:06:25.123Z,19.62
2018-11-21T12:07:25.131Z,19.58
2018-11-21T12:08:25.137Z,19.67
2018-11-21T12:09:25.134Z,19.62
2018-11-21T12:10:25.139Z,19.63
2018-11-21T12:11:25.143Z,19.63
2018-11-21T12:12:25.148Z,19.62
2018-11-21T12:13:25.153Z,19.62
2018-11-21T12:14:25.156Z,19.62
2018-11-21T12:15:25.159Z,19.59
2018-11-21T12:16:25.160Z,19.62
2018-11-21T12:17:25.170Z,19.62
2018-11-21T12:18:25.166Z,19.62
2018-11-21T12:19:25.175Z,19.63
2018-11-21T12:20:25.173Z,19.62
2018-11-21T12:21:25.170Z,19.62
2018-11-21T12:22:25.181Z,19.59
2018-11-21T12:23:25.175Z,19.59
2018-11-21T12:24:25.191Z,19.59
2018-11-21T12:25:25.193Z,19.63
2018-11-21T12:26:25.191Z,19.58
2018-11-21T12:27:25.200Z,19.64
2018-11-21T12:28:25.212Z,19.66
2018-11-21T12:29:25.206Z,19.62
2018-11-21T12:30:25.210Z,19.63
2018-11-21T12:31:25.199Z,19.63
2018-11-21T12:32:25.217Z,19.62
2018-11-21T12:33:25.223Z,19.63
2018-11-21T12:34:25.217Z,19.51
2018-11-21T12:35:25.335Z,19.55
2018-11-21T12:36:25.244Z,19.62
2018-11-21T12:37:25.352Z,19.55
2018-11-21T12:38:25.236Z,19.59
2018-11-21T12:39:25.249Z,19.59
2018-11-21T12:40:25.238Z,19.63
2018-11-21T12:41:25.254Z,19.62
2018-11-21T12:42:25.248Z,19.66
2018-11-21T12:43:25.257Z,19.58
2018-11-21T12:44:25.252Z,19.54
2018-11-21T12:45:25.258Z,19.56
2018-11-21T12:46:25.275Z,19.58
2018-11-21T12:47:25.277Z,19.62
2018-11-21T12:48:25.277Z,19.51
2018-11-21T12:49:25.279Z,19.51
2018-11-21T12:50:25.306Z,19.55
2018-11-21T12:51:25.298Z,19.59
2018-11-21T12:52:25.282Z,19.58